Terminal Aerodrome Forecast
Issued by NWS

Home | Current Version | Previous Version | Text Only | Print | Product List | Glossary On
Versions: 1 2 3 4 5 6 7 8 9 10 11 12 13 14 15 16 17 18 19 20 21 22
000
FTUS44 KTSA 231000 AAB
TAFMLC
TAF AMD
KMLC 231013Z 2310/2406 12006KT P6SM OVC023
      TEMPO 2310/2314 BKN015
     FM232000 14012KT 5SM -RA BR BKN015
      TEMPO 2320/2324 2SM -TSRA BR BKN015CB
     FM240000 15012KT 3SM -TSRA BR BKN015CB=

USA.gov is the U.S. government's official web portal to all federal, state and local government web resources and services.